sensor_id;sensor_type;location;lat;lon;timestamp;pressure;altitude;pressure_sealevel;temperature;humidity
13209;BME280;6669;42.678;23.332;2023-09-19T00:00:39;94929.31;;;16.32;100.00
13209;BME280;6669;42.678;23.332;2023-09-19T00:03:08;94927.69;;;16.31;100.00
13209;BME280;6669;42.678;23.332;2023-09-19T00:05:39;94926.50;;;16.34;100.00
13209;BME280;6669;42.678;23.332;2023-09-19T00:08:12;94926.50;;;16.27;100.00
13209;BME280;6669;42.678;23.332;2023-09-19T00:10:42;94925.88;;;16.18;100.00
13209;BME280;6669;42.678;23.332;2023-09-19T00:13:12;94927.50;;;16.26;100.00
13209;BME280;6669;42.678;23.332;2023-09-19T00:15:44;94919.81;;;16.25;100.00
13209;BME280;6669;42.678;23.332;2023-09-19T00:18:16;94927.69;;;16.25;100.00
13209;BME280;6669;42.678;23.332;2023-09-19T00:20:45;94924.88;;;16.20;100.00
13209;BME280;6669;42.678;23.332;2023-09-19T00:23:14;94925.66;;;16.20;100.00
13209;BME280;6669;42.678;23.332;2023-09-19T00:25:43;94924.44;;;16.23;100.00
13209;BME280;6669;42.678;23.332;2023-09-19T00:28:13;94920.25;;;16.22;100.00
13209;BME280;6669;42.678;23.332;2023-09-19T00:30:42;94916.16;;;16.12;100.00
13209;BME280;6669;42.678;23.332;2023-09-19T00:33:11;94913.75;;;16.11;100.00
13209;BME280;6669;42.678;23.332;2023-09-19T00:35:47;94906.88;;;16.03;100.00
13209;BME280;6669;42.678;23.332;2023-09-19T00:38:15;94903.25;;;15.97;100.00
13209;BME280;6669;42.678;23.332;2023-09-19T00:40:44;94902.22;;;15.98;100.00
13209;BME280;6669;42.678;23.332;2023-09-19T00:43:13;94908.28;;;15.92;100.00
13209;BME280;6669;42.678;23.332;2023-09-19T00:45:46;94896.16;;;15.84;100.00
13209;BME280;6669;42.678;23.332;2023-09-19T00:48:15;94900.59;;;15.84;100.00
13209;BME280;6669;42.678;23.332;2023-09-19T00:50:46;94898.34;;;15.81;100.00
13209;BME280;6669;42.678;23.332;2023-09-19T00:53:18;94905.22;;;15.82;100.00
13209;BME280;6669;42.678;23.332;2023-09-19T00:55:48;94911.06;;;15.84;100.00
13209;BME280;6669;42.678;23.332;2023-09-19T00:58:18;94909.06;;;15.86;100.00
13209;BME280;6669;42.678;23.332;2023-09-19T01:00:48;94899.38;;;15.87;100.00
13209;BME280;6669;42.678;23.332;2023-09-19T01:03:17;94905.63;;;15.85;100.00
13209;BME280;6669;42.678;23.332;2023-09-19T01:05:45;94908.66;;;15.82;100.00
13209;BME280;6669;42.678;23.332;2023-09-19T01:08:14;94901.34;;;15.78;100.00
13209;BME280;6669;42.678;23.332;2023-09-19T01:10:48;94906.00;;;15.76;100.00
13209;BME280;6669;42.678;23.332;2023-09-19T01:13:29;94901.72;;;15.68;100.00
13209;BME280;6669;42.678;23.332;2023-09-19T01:16:04;94903.31;;;15.62;100.00
13209;BME280;6669;42.678;23.332;2023-09-19T01:18:51;94903.50;;;15.61;100.00
13209;BME280;6669;42.678;23.332;2023-09-19T01:21:28;94904.09;;;15.56;100.00
13209;BME280;6669;42.678;23.332;2023-09-19T01:24:16;94911.34;;;15.54;100.00
13209;BME280;6669;42.678;23.332;2023-09-19T01:27:06;94914.16;;;15.52;100.00
13209;BME280;6669;42.678;23.332;2023-09-19T01:29:46;94916.13;;;15.44;100.00
13209;BME280;6669;42.678;23.332;2023-09-19T01:32:17;94912.50;;;15.45;100.00
13209;BME280;6669;42.678;23.332;2023-09-19T01:34:50;94905.66;;;15.44;100.00
13209;BME280;6669;42.678;23.332;2023-09-19T01:37:21;94901.78;;;15.33;100.00
13209;BME280;6669;42.678;23.332;2023-09-19T01:39:56;94901.97;;;15.31;100.00
13209;BME280;6669;42.678;23.332;2023-09-19T01:42:31;94894.69;;;15.27;100.00
13209;BME280;6669;42.678;23.332;2023-09-19T01:45:11;94891.88;;;15.28;100.00
13209;BME280;6669;42.678;23.332;2023-09-19T01:47:48;94892.91;;;15.27;100.00
13209;BME280;6669;42.678;23.332;2023-09-19T01:50:22;94901.72;;;15.19;100.00
13209;BME280;6669;42.678;23.332;2023-09-19T01:52:59;94903.13;;;15.22;100.00
13209;BME280;6669;42.678;23.332;2023-09-19T01:55:35;94896.28;;;15.21;100.00
13209;BME280;6669;42.678;23.332;2023-09-19T01:58:07;94895.88;;;15.17;100.00
13209;BME280;6669;42.678;23.332;2023-09-19T02:00:37;94904.28;;;15.13;100.00
13209;BME280;6669;42.678;23.332;2023-09-19T02:03:11;94907.88;;;15.05;100.00
13209;BME280;6669;42.678;23.332;2023-09-19T02:05:41;94911.91;;;15.08;100.00
13209;BME280;6669;42.678;23.332;2023-09-19T02:08:09;94908.69;;;15.06;100.00
13209;BME280;6669;42.678;23.332;2023-09-19T02:10:37;94914.34;;;15.09;100.00
13209;BME280;6669;42.678;23.332;2023-09-19T02:13:08;94907.31;;;15.10;100.00
13209;BME280;6669;42.678;23.332;2023-09-19T02:15:36;94899.81;;;15.07;100.00
13209;BME280;6669;42.678;23.332;2023-09-19T02:18:04;94901.09;;;15.11;100.00
13209;BME280;6669;42.678;23.332;2023-09-19T02:20:35;94898.63;;;15.09;100.00
13209;BME280;6669;42.678;23.332;2023-09-19T02:23:04;94898.84;;;15.08;100.00
13209;BME280;6669;42.678;23.332;2023-09-19T02:25:32;94901.44;;;15.08;100.00
13209;BME280;6669;42.678;23.332;2023-09-19T02:28:00;94904.28;;;15.06;100.00
13209;BME280;6669;42.678;23.332;2023-09-19T02:30:29;94892.94;;;14.99;100.00
13209;BME280;6669;42.678;23.332;2023-09-19T02:32:57;94884.28;;;14.98;100.00
13209;BME280;6669;42.678;23.332;2023-09-19T02:35:28;94886.28;;;14.96;100.00
13209;BME280;6669;42.678;23.332;2023-09-19T02:38:01;94886.72;;;15.00;100.00
13209;BME280;6669;42.678;23.332;2023-09-19T02:40:33;94887.03;;;14.90;100.00
13209;BME280;6669;42.678;23.332;2023-09-19T02:43:03;94878.41;;;14.90;100.00
13209;BME280;6669;42.678;23.332;2023-09-19T02:45:31;94873.16;;;14.90;100.00
13209;BME280;6669;42.678;23.332;2023-09-19T02:48:00;94877.63;;;14.96;100.00
13209;BME280;6669;42.678;23.332;2023-09-19T02:50:29;94874.19;;;14.95;100.00
13209;BME280;6669;42.678;23.332;2023-09-19T02:52:58;94871.16;;;14.92;100.00
13209;BME280;6669;42.678;23.332;2023-09-19T02:55:27;94861.50;;;14.92;100.00
13209;BME280;6669;42.678;23.332;2023-09-19T02:57:55;94873.53;;;14.86;100.00
13209;BME280;6669;42.678;23.332;2023-09-19T03:00:24;94869.34;;;14.92;100.00
13209;BME280;6669;42.678;23.332;2023-09-19T03:02:54;94860.06;;;14.90;100.00
13209;BME280;6669;42.678;23.332;2023-09-19T03:05:23;94858.47;;;14.88;100.00
13209;BME280;6669;42.678;23.332;2023-09-19T03:07:52;94856.84;;;14.87;100.00
13209;BME280;6669;42.678;23.332;2023-09-19T03:10:22;94864.41;;;14.76;100.00
13209;BME280;6669;42.678;23.332;2023-09-19T03:12:53;94864.03;;;14.79;100.00
13209;BME280;6669;42.678;23.332;2023-09-19T03:15:21;94858.75;;;14.72;100.00
13209;BME280;6669;42.678;23.332;2023-09-19T03:17:50;94856.13;;;14.72;100.00
13209;BME280;6669;42.678;23.332;2023-09-19T03:20:19;94860.50;;;14.65;100.00
13209;BME280;6669;42.678;23.332;2023-09-19T03:22:47;94853.00;;;14.55;100.00
13209;BME280;6669;42.678;23.332;2023-09-19T03:25:16;94851.34;;;14.47;100.00
13209;BME280;6669;42.678;23.332;2023-09-19T03:27:44;94854.38;;;14.51;100.00
13209;BME280;6669;42.678;23.332;2023-09-19T03:30:14;94843.31;;;14.55;100.00
13209;BME280;6669;42.678;23.332;2023-09-19T03:32:47;94849.75;;;14.53;100.00
13209;BME280;6669;42.678;23.332;2023-09-19T03:35:18;94849.91;;;14.45;100.00
13209;BME280;6669;42.678;23.332;2023-09-19T03:37:46;94856.56;;;14.47;100.00
13209;BME280;6669;42.678;23.332;2023-09-19T03:40:14;94854.94;;;14.46;100.00
13209;BME280;6669;42.678;23.332;2023-09-19T03:42:44;94857.50;;;14.39;100.00
13209;BME280;6669;42.678;23.332;2023-09-19T03:45:14;94864.97;;;14.43;100.00
13209;BME280;6669;42.678;23.332;2023-09-19T03:47:45;94878.03;;;14.43;100.00
13209;BME280;6669;42.678;23.332;2023-09-19T03:50:15;94871.81;;;14.44;100.00
13209;BME280;6669;42.678;23.332;2023-09-19T03:52:44;94874.00;;;14.40;100.00
13209;BME280;6669;42.678;23.332;2023-09-19T03:55:12;94874.31;;;14.30;100.00
13209;BME280;6669;42.678;23.332;2023-09-19T03:57:40;94876.75;;;14.32;100.00
13209;BME280;6669;42.678;23.332;2023-09-19T04:00:09;94880.97;;;14.33;100.00
13209;BME280;6669;42.678;23.332;2023-09-19T04:02:40;94874.56;;;14.35;100.00
13209;BME280;6669;42.678;23.332;2023-09-19T04:05:08;94871.16;;;14.35;100.00
13209;BME280;6669;42.678;23.332;2023-09-19T04:07:37;94879.31;;;14.25;100.00
13209;BME280;6669;42.678;23.332;2023-09-19T04:10:06;94871.47;;;14.25;100.00
13209;BME280;6669;42.678;23.332;2023-09-19T04:12:35;94879.94;;;14.27;100.00
13209;BME280;6669;42.678;23.332;2023-09-19T04:15:04;94884.66;;;14.38;100.00
13209;BME280;6669;42.678;23.332;2023-09-19T04:17:32;94895.34;;;14.44;100.00
13209;BME280;6669;42.678;23.332;2023-09-19T04:20:03;94894.97;;;14.47;100.00
13209;BME280;6669;42.678;23.332;2023-09-19T04:22:34;94895.44;;;14.57;100.00
13209;BME280;6669;42.678;23.332;2023-09-19T04:25:02;94885.41;;;14.61;100.00
13209;BME280;6669;42.678;23.332;2023-09-19T04:27:31;94885.81;;;14.58;100.00
13209;BME280;6669;42.678;23.332;2023-09-19T04:29:59;94885.81;;;14.58;100.00
13209;BME280;6669;42.678;23.332;2023-09-19T04:32:36;94877.38;;;14.62;100.00
13209;BME280;6669;42.678;23.332;2023-09-19T04:35:09;94884.91;;;14.72;100.00
13209;BME280;6669;42.678;23.332;2023-09-19T04:37:38;94886.16;;;14.76;100.00
13209;BME280;6669;42.678;23.332;2023-09-19T04:40:09;94884.56;;;14.75;100.00
13209;BME280;6669;42.678;23.332;2023-09-19T04:42:44;94883.59;;;14.83;100.00
13209;BME280;6669;42.678;23.332;2023-09-19T04:45:12;94880.34;;;14.81;100.00
13209;BME280;6669;42.678;23.332;2023-09-19T04:47:41;94874.38;;;14.94;100.00
13209;BME280;6669;42.678;23.332;2023-09-19T04:50:12;94872.94;;;14.84;100.00
13209;BME280;6669;42.678;23.332;2023-09-19T04:52:41;94873.59;;;14.93;100.00
13209;BME280;6669;42.678;23.332;2023-09-19T04:55:11;94875.78;;;14.90;100.00
13209;BME280;6669;42.678;23.332;2023-09-19T04:57:43;94864.16;;;14.99;100.00
13209;BME280;6669;42.678;23.332;2023-09-19T05:00:13;94863.81;;;15.09;100.00
13209;BME280;6669;42.678;23.332;2023-09-19T05:02:43;94868.91;;;15.24;100.00
13209;BME280;6669;42.678;23.332;2023-09-19T05:05:13;94868.53;;;15.33;100.00
13209;BME280;6669;42.678;23.332;2023-09-19T05:07:42;94863.72;;;15.44;100.00
13209;BME280;6669;42.678;23.332;2023-09-19T05:10:10;94858.53;;;15.50;100.00
13209;BME280;6669;42.678;23.332;2023-09-19T05:12:39;94866.22;;;15.59;100.00
13209;BME280;6669;42.678;23.332;2023-09-19T05:15:08;94868.47;;;15.68;100.00
13209;BME280;6669;42.678;23.332;2023-09-19T05:17:36;94875.13;;;15.71;100.00
13209;BME280;6669;42.678;23.332;2023-09-19T05:20:06;94869.88;;;15.78;100.00
13209;BME280;6669;42.678;23.332;2023-09-19T05:22:59;94864.88;;;15.83;100.00
13209;BME280;6669;42.678;23.332;2023-09-19T05:25:29;94870.34;;;15.81;100.00
13209;BME280;6669;42.678;23.332;2023-09-19T05:27:59;94864.72;;;15.91;100.00
13209;BME280;6669;42.678;23.332;2023-09-19T05:30:31;94865.53;;;15.98;100.00
13209;BME280;6669;42.678;23.332;2023-09-19T05:32:59;94862.50;;;16.15;100.00
13209;BME280;6669;42.678;23.332;2023-09-19T05:35:28;94860.50;;;16.24;100.00
13209;BME280;6669;42.678;23.332;2023-09-19T05:37:59;94857.69;;;16.32;100.00
13209;BME280;6669;42.678;23.332;2023-09-19T05:40:27;94859.72;;;16.43;100.00
13209;BME280;6669;42.678;23.332;2023-09-19T05:42:55;94855.88;;;16.53;100.00
13209;BME280;6669;42.678;23.332;2023-09-19T05:45:24;94852.22;;;16.67;100.00
13209;BME280;6669;42.678;23.332;2023-09-19T05:47:54;94845.75;;;16.76;100.00
13209;BME280;6669;42.678;23.332;2023-09-19T05:50:28;94846.56;;;16.77;100.00
13209;BME280;6669;42.678;23.332;2023-09-19T05:52:56;94854.00;;;16.80;100.00
13209;BME280;6669;42.678;23.332;2023-09-19T05:55:26;94856.03;;;16.91;100.00
13209;BME280;6669;42.678;23.332;2023-09-19T05:57:55;94855.25;;;16.91;100.00
13209;BME280;6669;42.678;23.332;2023-09-19T06:00:24;94853.81;;;16.95;100.00
13209;BME280;6669;42.678;23.332;2023-09-19T06:02:55;94853.78;;;17.02;100.00
13209;BME280;6669;42.678;23.332;2023-09-19T06:05:26;94844.50;;;17.06;100.00
13209;BME280;6669;42.678;23.332;2023-09-19T06:07:59;94843.69;;;17.12;100.00
13209;BME280;6669;42.678;23.332;2023-09-19T06:10:29;94847.06;;;17.19;100.00
13209;BME280;6669;42.678;23.332;2023-09-19T06:12:59;94842.78;;;17.31;100.00
13209;BME280;6669;42.678;23.332;2023-09-19T06:15:27;94840.34;;;17.37;100.00
13209;BME280;6669;42.678;23.332;2023-09-19T06:17:55;94841.34;;;17.42;100.00
13209;BME280;6669;42.678;23.332;2023-09-19T06:20:25;94844.81;;;17.29;100.00
13209;BME280;6669;42.678;23.332;2023-09-19T06:22:54;94846.38;;;17.44;100.00
13209;BME280;6669;42.678;23.332;2023-09-19T06:25:22;94835.88;;;17.37;100.00
13209;BME280;6669;42.678;23.332;2023-09-19T06:27:53;94830.63;;;17.37;100.00
13209;BME280;6669;42.678;23.332;2023-09-19T06:30:23;94831.00;;;17.41;100.00
13209;BME280;6669;42.678;23.332;2023-09-19T06:32:56;94824.53;;;17.50;100.00
13209;BME280;6669;42.678;23.332;2023-09-19T06:35:24;94832.50;;;17.69;100.00
13209;BME280;6669;42.678;23.332;2023-09-19T06:37:53;94831.06;;;17.73;100.00
13209;BME280;6669;42.678;23.332;2023-09-19T06:40:25;94839.09;;;17.85;100.00
13209;BME280;6669;42.678;23.332;2023-09-19T06:42:56;94834.22;;;17.88;100.00
13209;BME280;6669;42.678;23.332;2023-09-19T06:45:24;94832.22;;;18.16;100.00
13209;BME280;6669;42.678;23.332;2023-09-19T06:47:54;94829.34;;;18.24;100.00
13209;BME280;6669;42.678;23.332;2023-09-19T06:50:25;94834.94;;;18.34;100.00
13209;BME280;6669;42.678;23.332;2023-09-19T06:52:55;94837.59;;;18.53;100.00
13209;BME280;6669;42.678;23.332;2023-09-19T06:55:25;94837.31;;;18.61;100.00
13209;BME280;6669;42.678;23.332;2023-09-19T06:57:57;94844.66;;;18.77;100.00
13209;BME280;6669;42.678;23.332;2023-09-19T07:00:25;94846.44;;;18.84;100.00
13209;BME280;6669;42.678;23.332;2023-09-19T07:02:56;94844.59;;;18.84;100.00
13209;BME280;6669;42.678;23.332;2023-09-19T07:05:26;94847.84;;;18.61;100.00
13209;BME280;6669;42.678;23.332;2023-09-19T07:07:55;94853.97;;;18.80;100.00
13209;BME280;6669;42.678;23.332;2023-09-19T07:10:26;94843.75;;;18.90;100.00
13209;BME280;6669;42.678;23.332;2023-09-19T07:12:57;94845.94;;;18.93;100.00
13209;BME280;6669;42.678;23.332;2023-09-19T07:15:25;94846.28;;;18.78;100.00
13209;BME280;6669;42.678;23.332;2023-09-19T07:17:54;94846.47;;;18.77;100.00
13209;BME280;6669;42.678;23.332;2023-09-19T07:20:24;94859.16;;;18.87;100.00
13209;BME280;6669;42.678;23.332;2023-09-19T07:22:53;94852.19;;;18.99;100.00
13209;BME280;6669;42.678;23.332;2023-09-19T07:25:22;94856.25;;;18.95;100.00
13209;BME280;6669;42.678;23.332;2023-09-19T07:27:51;94849.53;;;18.99;100.00
13209;BME280;6669;42.678;23.332;2023-09-19T07:30:21;94845.13;;;19.11;100.00
13209;BME280;6669;42.678;23.332;2023-09-19T07:32:50;94848.00;;;19.28;100.00
13209;BME280;6669;42.678;23.332;2023-09-19T07:35:18;94857.06;;;18.95;100.00
13209;BME280;6669;42.678;23.332;2023-09-19T07:37:47;94855.38;;;19.01;100.00
13209;BME280;6669;42.678;23.332;2023-09-19T07:40:18;94856.56;;;19.05;100.00
13209;BME280;6669;42.678;23.332;2023-09-19T07:42:47;94849.03;;;18.90;100.00
13209;BME280;6669;42.678;23.332;2023-09-19T07:45:17;94852.91;;;19.06;100.00
13209;BME280;6669;42.678;23.332;2023-09-19T07:47:47;94852.25;;;19.11;100.00
13209;BME280;6669;42.678;23.332;2023-09-19T07:50:16;94858.81;;;19.20;100.00
13209;BME280;6669;42.678;23.332;2023-09-19T07:52:46;94855.31;;;19.26;100.00
13209;BME280;6669;42.678;23.332;2023-09-19T07:55:14;94854.81;;;19.36;100.00
13209;BME280;6669;42.678;23.332;2023-09-19T07:57:44;94862.41;;;19.44;100.00
13209;BME280;6669;42.678;23.332;2023-09-19T08:00:13;94861.31;;;19.34;100.00
13209;BME280;6669;42.678;23.332;2023-09-19T08:02:42;94862.78;;;19.30;100.00
13209;BME280;6669;42.678;23.332;2023-09-19T08:05:14;94854.44;;;19.14;100.00
13209;BME280;6669;42.678;23.332;2023-09-19T08:07:45;94861.59;;;19.25;100.00
13209;BME280;6669;42.678;23.332;2023-09-19T08:10:15;94842.56;;;19.42;100.00
13209;BME280;6669;42.678;23.332;2023-09-19T08:12:47;94840.16;;;19.40;100.00
13209;BME280;6669;42.678;23.332;2023-09-19T08:15:16;94832.78;;;19.61;100.00
13209;BME280;6669;42.678;23.332;2023-09-19T08:17:47;94837.63;;;19.64;100.00
13209;BME280;6669;42.678;23.332;2023-09-19T08:20:17;94835.91;;;19.70;100.00
13209;BME280;6669;42.678;23.332;2023-09-19T08:22:47;94834.44;;;19.74;100.00
13209;BME280;6669;42.678;23.332;2023-09-19T08:25:16;94828.25;;;19.99;100.00
13209;BME280;6669;42.678;23.332;2023-09-19T08:27:46;94830.75;;;19.93;100.00
13209;BME280;6669;42.678;23.332;2023-09-19T08:30:15;94819.56;;;20.10;100.00
13209;BME280;6669;42.678;23.332;2023-09-19T08:32:43;94823.34;;;20.26;100.00
13209;BME280;6669;42.678;23.332;2023-09-19T08:35:13;94827.75;;;20.44;100.00
13209;BME280;6669;42.678;23.332;2023-09-19T08:37:43;94841.75;;;20.45;100.00
13209;BME280;6669;42.678;23.332;2023-09-19T08:40:13;94841.88;;;20.62;100.00
13209;BME280;6669;42.678;23.332;2023-09-19T08:42:48;94837.06;;;20.70;100.00
13209;BME280;6669;42.678;23.332;2023-09-19T08:45:17;94838.91;;;20.70;100.00
13209;BME280;6669;42.678;23.332;2023-09-19T08:47:46;94828.09;;;20.60;100.00
13209;BME280;6669;42.678;23.332;2023-09-19T08:50:28;94829.94;;;20.47;100.00
13209;BME280;6669;42.678;23.332;2023-09-19T08:53:01;94822.22;;;20.69;100.00
13209;BME280;6669;42.678;23.332;2023-09-19T08:55:31;94818.94;;;20.74;100.00
13209;BME280;6669;42.678;23.332;2023-09-19T08:58:02;94813.31;;;20.70;100.00
13209;BME280;6669;42.678;23.332;2023-09-19T09:00:31;94818.00;;;20.92;100.00
13209;BME280;6669;42.678;23.332;2023-09-19T09:03:01;94815.81;;;21.01;100.00
13209;BME280;6669;42.678;23.332;2023-09-19T09:05:31;94816.00;;;21.11;100.00
13209;BME280;6669;42.678;23.332;2023-09-19T09:08:02;94817.47;;;21.31;100.00
13209;BME280;6669;42.678;23.332;2023-09-19T09:10:37;94810.94;;;21.62;100.00
13209;BME280;6669;42.678;23.332;2023-09-19T09:13:07;94810.00;;;21.68;100.00
13209;BME280;6669;42.678;23.332;2023-09-19T09:15:38;94816.47;;;21.61;100.00
13209;BME280;6669;42.678;23.332;2023-09-19T09:18:09;94808.44;;;22.01;100.00
13209;BME280;6669;42.678;23.332;2023-09-19T09:20:37;94800.34;;;22.08;100.00
13209;BME280;6669;42.678;23.332;2023-09-19T09:23:06;94796.19;;;22.12;100.00
13209;BME280;6669;42.678;23.332;2023-09-19T09:25:48;94795.72;;;22.32;100.00
13209;BME280;6669;42.678;23.332;2023-09-19T09:28:21;94792.44;;;22.42;100.00
13209;BME280;6669;42.678;23.332;2023-09-19T09:30:50;94785.38;;;22.48;100.00
13209;BME280;6669;42.678;23.332;2023-09-19T09:33:19;94788.50;;;22.28;100.00
13209;BME280;6669;42.678;23.332;2023-09-19T09:35:49;94782.97;;;22.46;100.00
13209;BME280;6669;42.678;23.332;2023-09-19T09:38:21;94779.72;;;22.61;100.00
13209;BME280;6669;42.678;23.332;2023-09-19T09:40:53;94781.56;;;22.78;100.00
13209;BME280;6669;42.678;23.332;2023-09-19T09:43:31;94774.16;;;22.80;100.00
13209;BME280;6669;42.678;23.332;2023-09-19T09:46:08;94769.84;;;22.74;100.00
13209;BME280;6669;42.678;23.332;2023-09-19T09:48:59;94763.50;;;22.97;100.00
13209;BME280;6669;42.678;23.332;2023-09-19T09:51:43;94769.28;;;23.33;100.00
13209;BME280;6669;42.678;23.332;2023-09-19T09:54:17;94758.22;;;23.41;100.00
13209;BME280;6669;42.678;23.332;2023-09-19T09:56:54;94759.69;;;23.10;100.00
13209;BME280;6669;42.678;23.332;2023-09-19T09:59:48;94759.50;;;23.39;100.00
13209;BME280;6669;42.678;23.332;2023-09-19T10:02:27;94757.94;;;23.15;100.00
13209;BME280;6669;42.678;23.332;2023-09-19T10:05:11;94749.59;;;23.07;100.00
13209;BME280;6669;42.678;23.332;2023-09-19T10:07:50;94762.84;;;23.29;100.00
13209;BME280;6669;42.678;23.332;2023-09-19T10:10:31;94756.69;;;23.23;100.00
13209;BME280;6669;42.678;23.332;2023-09-19T10:13:12;94758.78;;;23.21;100.00
13209;BME280;6669;42.678;23.332;2023-09-19T10:15:43;94752.78;;;23.31;100.00
13209;BME280;6669;42.678;23.332;2023-09-19T10:18:20;94759.75;;;23.37;100.00
13209;BME280;6669;42.678;23.332;2023-09-19T10:20:48;94748.53;;;23.52;100.00
13209;BME280;6669;42.678;23.332;2023-09-19T10:23:19;94751.22;;;23.57;100.00
13209;BME280;6669;42.678;23.332;2023-09-19T10:25:52;94749.91;;;23.60;100.00
13209;BME280;6669;42.678;23.332;2023-09-19T10:28:23;94751.69;;;23.27;100.00
13209;BME280;6669;42.678;23.332;2023-09-19T10:30:57;94752.78;;;23.31;100.00
13209;BME280;6669;42.678;23.332;2023-09-19T10:33:34;94742.00;;;23.38;100.00
13209;BME280;6669;42.678;23.332;2023-09-19T10:36:05;94732.19;;;23.38;100.00
13209;BME280;6669;42.678;23.332;2023-09-19T10:38:35;94739.88;;;23.67;100.00
13209;BME280;6669;42.678;23.332;2023-09-19T10:41:10;94736.69;;;23.65;100.00
13209;BME280;6669;42.678;23.332;2023-09-19T10:43:43;94740.13;;;23.65;100.00
13209;BME280;6669;42.678;23.332;2023-09-19T10:46:13;94732.13;;;23.60;100.00
13209;BME280;6669;42.678;23.332;2023-09-19T10:48:42;94737.63;;;23.81;100.00
13209;BME280;6669;42.678;23.332;2023-09-19T10:51:18;94733.91;;;23.82;100.00
13209;BME280;6669;42.678;23.332;2023-09-19T10:53:52;94729.41;;;23.82;100.00
13209;BME280;6669;42.678;23.332;2023-09-19T10:56:27;94727.19;;;24.02;100.00
13209;BME280;6669;42.678;23.332;2023-09-19T10:59:06;94722.16;;;23.73;100.00
13209;BME280;6669;42.678;23.332;2023-09-19T11:01:45;94720.25;;;23.95;100.00
13209;BME280;6669;42.678;23.332;2023-09-19T11:04:26;94724.03;;;23.77;100.00
13209;BME280;6669;42.678;23.332;2023-09-19T11:07:03;94724.25;;;23.98;100.00
13209;BME280;6669;42.678;23.332;2023-09-19T11:09:48;94713.19;;;24.11;100.00
13209;BME280;6669;42.678;23.332;2023-09-19T11:12:51;94721.38;;;24.05;100.00
13209;BME280;6669;42.678;23.332;2023-09-19T11:18:53;94719.69;;;24.26;100.00
13209;BME280;6669;42.678;23.332;2023-09-19T11:21:53;94708.81;;;24.32;100.00
13209;BME280;6669;42.678;23.332;2023-09-19T11:24:29;94700.97;;;24.10;100.00
13209;BME280;6669;42.678;23.332;2023-09-19T11:27:12;94703.81;;;24.36;100.00
13209;BME280;6669;42.678;23.332;2023-09-19T11:29:42;94701.13;;;24.31;100.00
13209;BME280;6669;42.678;23.332;2023-09-19T11:32:10;94703.00;;;24.36;100.00
13209;BME280;6669;42.678;23.332;2023-09-19T11:34:48;94697.72;;;24.46;100.00
13209;BME280;6669;42.678;23.332;2023-09-19T11:40:38;94685.84;;;25.27;100.00
13209;BME280;6669;42.678;23.332;2023-09-19T11:43:37;94679.00;;;25.47;100.00
13209;BME280;6669;42.678;23.332;2023-09-19T11:46:09;94669.41;;;25.72;100.00
13209;BME280;6669;42.678;23.332;2023-09-19T11:48:41;94653.16;;;25.78;100.00
13209;BME280;6669;42.678;23.332;2023-09-19T11:51:18;94656.66;;;25.84;100.00
13209;BME280;6669;42.678;23.332;2023-09-19T11:53:56;94651.03;;;25.86;100.00
13209;BME280;6669;42.678;23.332;2023-09-19T11:56:26;94659.28;;;25.94;100.00
13209;BME280;6669;42.678;23.332;2023-09-19T11:58:56;94663.28;;;25.92;100.00
13209;BME280;6669;42.678;23.332;2023-09-19T12:01:29;94657.91;;;26.38;100.00
13209;BME280;6669;42.678;23.332;2023-09-19T12:04:00;94657.06;;;26.48;97.17
13209;BME280;6669;42.678;23.332;2023-09-19T12:06:29;94652.59;;;26.43;99.22
13209;BME280;6669;42.678;23.332;2023-09-19T12:08:59;94646.81;;;26.91;93.17
13209;BME280;6669;42.678;23.332;2023-09-19T12:11:30;94642.53;;;27.40;90.23
13209;BME280;6669;42.678;23.332;2023-09-19T12:14:01;94632.09;;;27.79;84.81
13209;BME280;6669;42.678;23.332;2023-09-19T12:16:32;94632.09;;;27.79;87.48
13209;BME280;6669;42.678;23.332;2023-09-19T12:19:19;94635.09;;;28.07;82.96
13209;BME280;6669;42.678;23.332;2023-09-19T12:21:56;94634.81;;;28.32;84.51
13209;BME280;6669;42.678;23.332;2023-09-19T12:24:27;94622.53;;;28.80;85.26
13209;BME280;6669;42.678;23.332;2023-09-19T12:27:01;94626.28;;;29.55;79.00
13209;BME280;6669;42.678;23.332;2023-09-19T12:29:31;94620.28;;;29.96;73.88
13209;BME280;6669;42.678;23.332;2023-09-19T12:32:02;94622.19;;;29.77;72.51
13209;BME280;6669;42.678;23.332;2023-09-19T12:34:33;94614.44;;;29.42;73.19
13209;BME280;6669;42.678;23.332;2023-09-19T12:37:10;94610.59;;;29.48;72.55
13209;BME280;6669;42.678;23.332;2023-09-19T12:39:49;94608.13;;;29.85;73.15
13209;BME280;6669;42.678;23.332;2023-09-19T12:42:20;94600.84;;;30.05;72.08
13209;BME280;6669;42.678;23.332;2023-09-19T12:44:50;94605.22;;;30.28;73.55
13209;BME280;6669;42.678;23.332;2023-09-19T12:47:24;94607.00;;;30.75;68.13
13209;BME280;6669;42.678;23.332;2023-09-19T12:50:13;94608.19;;;30.82;68.67
13209;BME280;6669;42.678;23.332;2023-09-19T12:52:45;94607.41;;;31.33;65.88
13209;BME280;6669;42.678;23.332;2023-09-19T12:55:21;94613.78;;;31.23;64.72
13209;BME280;6669;42.678;23.332;2023-09-19T12:58:08;94609.38;;;31.63;64.14
13209;BME280;6669;42.678;23.332;2023-09-19T13:00:40;94600.84;;;31.47;65.70
13209;BME280;6669;42.678;23.332;2023-09-19T13:03:18;94588.47;;;31.01;63.04
13209;BME280;6669;42.678;23.332;2023-09-19T13:05:53;94583.44;;;31.36;64.84
13209;BME280;6669;42.678;23.332;2023-09-19T13:08:26;94586.28;;;31.62;64.59
13209;BME280;6669;42.678;23.332;2023-09-19T13:11:16;94577.69;;;31.52;63.74
13209;BME280;6669;42.678;23.332;2023-09-19T13:13:50;94582.34;;;31.91;63.47
13209;BME280;6669;42.678;23.332;2023-09-19T13:16:22;94580.53;;;31.78;63.71
13209;BME280;6669;42.678;23.332;2023-09-19T13:18:54;94584.94;;;31.74;64.79
13209;BME280;6669;42.678;23.332;2023-09-19T13:21:29;94585.88;;;32.01;63.54